Metar Cercanos

 

LEPA - Palma De Mallorc, Spain
Distance from station: ONO 38km
Actualización: Tue, 25-Jun-2024 6:00pm CEST
Few Clouds
Few Clouds
 Viento del OSO
Viento: OSO 24 km/h
Temperatura: 26°C
Rocío: 18°C
Humedad: 61%
Barómetro: 1012 hPa
Clouds: Few Clouds
Visibility: 10 km
Cloud details: Few Clouds 1219 m
2024/06/25 16:00 LEPA 251600Z 24013KT 9999 FEW040 26/18 Q1012 NOSIG
LEMH - Mahon/Menorca Is, Spain
Distance from station: ENE 105km
Actualización: Tue, 25-Jun-2024 6:00pm CEST
Few Clouds
Few Clouds
 Viento del S
Viento: S 17 km/h
Temperatura: 25°C
Rocío: 16°C
Humedad: 57%
Barómetro: 1013 hPa
Clouds: Few Clouds
Visibility: 10 km
Cloud details: Few Clouds 1067 m
2024/06/25 16:00 LEMH 251600Z 19009KT 150V220 9999 FEW035 25/16 Q1013
 
LEIB - Ibiza/Es Codola, Spain
Distance from station: OSO 165km
Actualización: Tue, 25-Jun-2024 6:00pm CEST
Few Clouds
Few Clouds
 Viento del ESE
Viento: ESE 17 km/h
Temperatura: 25°C
Rocío: 18°C
Humedad: 65%
Barómetro: 1011 hPa
Clouds: Few Clouds
Visibility: 10 km
Cloud details: Few Clouds 610 m
2024/06/25 16:00 LEIB 251600Z 11009KT 070V150 9999 FEW020 25/18 Q1011 NOSIG
LEBL - Barcelona Airpor, Spain
Distance from station: NNO 225km
Actualización: Tue, 25-Jun-2024 6:00pm CEST
Few Clouds
Few Clouds
 Viento del SO
Viento: SO 30 km/h
Temperatura: 24°C
Rocío: 18°C
Humedad: 69%
Barómetro: 1011 hPa
Clouds: Few Clouds
Visibility: 10 km
Cloud details: Few Clouds 549 m
2024/06/25 16:00 LEBL 251600Z 22016KT 9999 FEW018 24/18 Q1011 NOSIG
 
LEVC - Valencia (civ/Mi, Spain
Distance from station: NO 188km
Actualización: Tue, 25-Jun-2024 6:00pm CEST
Few Clouds
Few Clouds
 Viento del ESE
Viento: ESE 22 km/h
Temperatura: 27°C
Indice Calor: 28°C
Rocío: 18°C
Humedad: 58%
Barómetro: 1009 hPa
Clouds: Few Clouds
Visibility: 10 km
Cloud details: Few Clouds 1219 m
2024/06/25 16:00 LEVC 251600Z 12012KT 9999 FEW040 27/18 Q1009 NOSIG
LEGE - Gerona/Costa Bra, Spain
Distance from station: N 276km
Actualización: Tue, 25-Jun-2024 6:00pm CEST
Few Clouds
Few Clouds
 Viento del S
Viento: S 22 km/h
Temperatura: 26°C
Rocío: 17°C
Humedad: 58%
Barómetro: 1010 hPa
Clouds: Few Clouds
Visibility: 10 km
Cloud details: Few Clouds 1524 m
Few Clouds 3048 m
2024/06/25 16:00 LEGE 251600Z 18012KT 150V210 9999 FEW050 FEW100TCU 26/17 Q1010 NOSIG
 
LEAL - Alicante/El Alte, Spain
Distance from station: OSO 344km
Actualización: Tue, 25-Jun-2024 6:00pm CEST
Despejado
Despejado
 Viento del E
Viento: E 15 km/h
Temperatura: 26°C
Rocío: 16°C
Humedad: 54%
Barómetro: 1011 hPa
Resumen: Despejado
Visibility: greater than 10 km
2024/06/25 16:00 LEAL 251600Z 10008KT 060V140 CAVOK 26/16 Q1011 NOSIG
LEAM - Almeria Airport, Spain
Distance from station: SSO 56km
Actualización: Tue, 25-Jun-2024 6:00pm CEST
Despejado
Despejado
 Viento del S
Viento: S 13 km/h
Temperatura: 28°C
Indice Calor: 28°C
Rocío: 17°C
Humedad: 51%
Barómetro: 1009 hPa
Resumen: Despejado
Visibility: greater than 10 km
2024/06/25 16:00 LEAM 251600Z 18007KT 160V230 CAVOK 28/17 Q1009
 
LEZG - Zaragoza (mil/Ci, Spain
Distance from station: NO 431km
Actualización: Tue, 25-Jun-2024 6:00pm CEST
Despejado
Despejado
 Viento del NE
Viento: NE 6 km/h
Temperatura: 34°C
Rocío: 12°C
Humedad: 26%
Barómetro: 1007 hPa
Resumen: Despejado
Visibility: greater than 10 km
2024/06/25 16:00 LEZG 251600Z 05003KT 340V110 CAVOK 34/12 Q1007 NOSIG
LEMD - Madrid/Barajas, Spain
Distance from station: ONO 234km
Actualización: Tue, 25-Jun-2024 6:00pm CEST
Parcialmente nuboso
Parcialmente nuboso
 Viento del O
Viento: O 7 km/h
Temperatura: 36°C
Rocío: 10°C
Humedad: 20%
Barómetro: 1008 hPa
Clouds: Parcialmente nuboso
Visibility: 10 km
Cloud details: Parcialmente nuboso 2134 m
2024/06/25 16:00 LEMD 251600Z 28004KT 9999 SCT070 36/10 Q1008 NOSIG
 
LEGR - Granada Airport, Spain
Distance from station: OSO 62km
Actualización: Tue, 25-Jun-2024 6:00pm CEST
Few Clouds
Few Clouds
 Viento del varies
Viento: varies 7 km/h
Temperatura: 37°C
Rocío: 7°C
Humedad: 16%
Barómetro: 1009 hPa
Clouds: Few Clouds
Visibility: 10 km
Cloud details: Few Clouds 2743 m
2024/06/25 16:00 LEGR 251600Z VRB04KT 9999 FEW090 37/07 Q1009
LEMG - Malaga (civ/Mil), Spain
Distance from station: OSO 227km
Actualización: Tue, 25-Jun-2024 6:00pm CEST
Despejado
Despejado
 Viento del SE
Viento: SE 19 km/h
Temperatura: 25°C
Rocío: 15°C
Humedad: 54%
Barómetro: 1009 hPa
Resumen: Despejado
Visibility: greater than 10 km
2024/06/25 16:00 LEMG 251600Z 14010KT 110V170 CAVOK 25/15 Q1009 NOSIG
 
LEZL - Sevilla (civ/Mil, Spain
Distance from station: S 318km
Actualización: Tue, 25-Jun-2024 6:00pm CEST
Despejado
Despejado
 Viento del SO
Viento: SO 15 km/h
Temperatura: 35°C
Rocío: 11°C
Humedad: 23%
Barómetro: 1006 hPa
Resumen: Despejado
Visibility: greater than 10 km
2024/06/25 16:00 LEZL 251600Z 22008KT 180V280 CAVOK 35/11 Q1006 NOSIG
LEVT - Vitoria, Spain
Distance from station: NO 226km
Actualización: Tue, 25-Jun-2024 6:00pm CEST
Few Clouds
Few Clouds
 Viento del E
Viento: E 9 km/h
Temperatura: 31°C
Indice Calor: 32°C
Rocío: 18°C
Humedad: 46%
Barómetro: 1009 hPa
Clouds: Few Clouds
Visibility: 10 km
Cloud details: Few Clouds 1250 m
2024/06/25 16:00 LEVT 251600Z 08005KT 350V160 9999 FEW041 31/18 Q1009
 
LEBB - Bilbao/Sondica, Spain
Distance from station: NNO 235km
Actualización: Tue, 25-Jun-2024 6:00pm CEST
Few Clouds
Few Clouds
 Viento del O
Viento: O 20 km/h
Temperatura: 24°C
Rocío: 20°C
Humedad: 78%
Barómetro: 1009 hPa
Clouds: Few Clouds
Visibility: 10 km
Cloud details: Few Clouds 1524 m
2024/06/25 16:00 LEBB 251600Z 28011KT 250V310 9999 FEW050 24/20 Q1009
LESO - San Sebastian/Fu, Spain
Distance from station: N 231km
Actualización: Tue, 25-Jun-2024 6:00pm CEST
Few Clouds
Few Clouds
 Viento del NNE
Viento: NNE 7 km/h
Temperatura: 25°C
Rocío: 20°C
Humedad: 74%
Barómetro: 1008 hPa
Clouds: Few Clouds
Visibility: 10 km
Cloud details: Few Clouds 1524 m
2024/06/25 16:00 LESO 251600Z 02004KT 310V090 9999 FEW050 25/20 Q1008
 
LEVD - Valladolid(Mil/C, Spain
Distance from station: ONO 239km
Actualización: Tue, 25-Jun-2024 6:00pm CEST
Few Clouds
Few Clouds
 Viento del SE
Viento: SE 24 km/h
Temperatura: 26°C
Rocío: 15°C
Humedad: 51%
Barómetro: 1011 hPa
Clouds: Few Clouds
Visibility: 10 km
Cloud details: Few Clouds 1737 m
2024/06/25 16:00 LEVD 251600Z 14013KT 100V170 9999 FEW057TCU 26/15 Q1011 NOSIG
LESA - Salamanca (civ/M, Spain
Distance from station: ONO 349km
Actualización: Tue, 25-Jun-2024 6:00pm CEST
Few Clouds
Few Clouds
 Viento del OSO
Viento: OSO 28 km/h
Temperatura: 32°C
Rocío: 12°C
Humedad: 29%
Barómetro: 1009 hPa
Clouds: Few Clouds
Visibility: 10 km
Cloud details: Few Clouds 2134 m
2024/06/25 16:00 LESA 251600Z 24015KT 200V270 9999 FEW070TCU 32/12 Q1009
 
LEXJ - Santander/Paraya, Spain
Distance from station: NNO 247km
Actualización: Tue, 25-Jun-2024 6:00pm CEST
Few Clouds
Few Clouds
 Viento del ENE
Viento: ENE 7 km/h
Temperatura: 22°C
Rocío: 18°C
Humedad: 78%
Barómetro: 1009 hPa
Clouds: Few Clouds
Visibility: 10 km
Cloud details: Few Clouds 579 m
2024/06/25 16:00 LEXJ 251600Z 06004KT 9999 FEW019 22/18 Q1009
LEAS - Asturias/Aviles, Spain
Distance from station: NO 214km
Actualización: Tue, 25-Jun-2024 6:00pm CEST
Parcialmente nuboso
Parcialmente nuboso
 Viento del varies
Viento: varies 4 km/h
Temperatura: 19°C
Rocío: 18°C
Humedad: 94%
Barómetro: 1011 hPa
Clouds: Parcialmente nuboso
Visibility: 10 km
Cloud details: Few Clouds 457 m
Parcialmente nuboso 1219 m
2024/06/25 16:00 LEAS 251600Z VRB02KT 9999 FEW015 SCT040TCU 19/18 Q1011 TEMPO SHRA SCT040CB
 
LECO - La Coruna/Alvedr, Spain
Distance from station: ONO 222km
Actualización: Tue, 25-Jun-2024 6:00pm CEST
Muy nuboso
Muy nuboso
 Viento del NO
Viento: NO 9 km/h
Temperatura: 19°C
Rocío: 17°C
Humedad: 88%
Barómetro: 1010 hPa
Clouds: Muy nuboso
Visibility: 10 km
Cloud details: Muy nuboso 610 m
2024/06/25 16:00 LECO 251600Z 32005KT 260V020 9999 BKN020 19/17 Q1010 NOSIG
LEVX - Vigo/Peinador, Spain
Distance from station: O 214km
Actualización: Tue, 25-Jun-2024 6:00pm CEST
Cubierto
Cubierto
 Viento del SE
Viento: SE 7 km/h
Temperatura: 19°C
Rocío: 16°C
Humedad: 83%
Barómetro: 1010 hPa
Clouds: Cubierto
Visibility: 6 km
Cloud details: Few Clouds 427 m
Muy nuboso 518 m
Cubierto 579 m
2024/06/25 16:00 LEVX 251600Z 13004KT 060V220 6000 FEW014 BKN017 OVC019 19/16 Q1010 NOSIG